5

www.moto.it

MX 2018. Herlings e Prado si aggiudicano le qualifiche in Trentino

5
...

Attenzione: la versione di Internet Explorer che stai utilizzando non permette una corretta visualizzazione.
Moto.it è ottimizzato per Internet Explorer 9 o superiore, oppure puoi utilizzare altri browser come Chrome, Firefox o Safari.

MX 2018. Herlings e Prado si aggiudicano le qualifiche in Trentino

Herlings si aggiudica le qualifiche davanti a Cairoli e Desalle. Nella MX2 Prado è il più veloce, alle sue spalle Olsen e Covington.

CLASSIFICA

MXGP - Qualifying Race - Classification

Pos Nr Rider Nat. Fed. Bike Time laps Diff. First Diff. Prev. Bestlaptime in lap Speed
1 84 Herlings, Jeffrey NED KNMV KTM 23:43.859 13 0:00.000 0:00.000 1:47.715 11 55.4
2 222 Cairoli, Antonio ITA FMI KTM 24:06.636 13 0:22.777 0:22.777 1:47.585 3 55.5
3 25 Desalle, Clement BEL FMB Kawasaki 24:13.615 13 0:29.756 0:06.979 1:49.051 3 54.8
4 21 Paulin, Gautier FRA MCM Husqvarna 24:16.324 13 0:32.465 0:02.709 1:49.339 4 54.6
5 259 Coldenhoff, Glenn NED KNMV KTM 24:22.667 13 0:38.808 0:06.343 1:49.768 5 54.4
6 89 Van Horebeek, Jeremy BEL FMB Yamaha 24:24.732 13 0:40.873 0:02.065 1:49.730 4 54.4
7 461 Febvre, Romain FRA FFM Yamaha 24:31.746 13 0:47.887 0:07.014 1:49.371 7 54.6
8 141 Desprey, Maxime FRA FFM Kawasaki 24:33.185 13 0:49.326 0:01.439 1:50.758 4 53.9
9 91 Seewer, Jeremy SUI FMS Yamaha 24:33.820 13 0:49.961 0:00.635 1:50.340 4 54.1
10 33 Lieber, Julien BEL FMB Kawasaki 24:41.122 13 0:57.263 0:07.302 1:50.838 4 53.9
11 27 Jasikonis, Arminas LTU LMSF Honda 24:42.015 13 0:58.156 0:00.893 1:50.897 6 53.8
12 24 Simpson, Shaun GBR ACU Yamaha 24:45.044 13 1:01.185 0:03.029 1:51.638 4 53.5
13 6 Paturel, Benoit FRA FFM KTM 24:49.809 13 1:05.950 0:04.765 1:51.443 4 53.6
14 777 Bobryshev, Evgeny RUS MFR Suzuki 24:56.429 13 1:12.570 0:06.620 1:52.039 5 53.3
15 77 Lupino, Alessandro ITA FMI Kawasaki 24:57.065 13 1:13.206 0:00.636 1:51.001 6 53.8
16 9 de Dycker, Ken BEL FMB KTM 25:07.182 13 1:23.323 0:10.117 1:52.139 7 53.2
17 243 Gajser, Tim SLO AMZS Honda 25:08.369 13 1:24.510 0:01.187 1:51.534 6 53.5
18 17 Butron, Jose ESP RFME KTM 25:15.787 13 1:31.928 0:07.418 1:53.396 6 52.7
19 152 Petrov, Petar BUL BMF Honda 25:17.073 13 1:33.214 0:01.286 1:53.520 6 52.6
20 878 Pezzuto, Stefano ITA FMI Yamaha 25:21.619 13 1:37.760 0:04.546 1:53.669 4 52.5

MX2 - Qualifying Race - Classification

Pos Nr Rider Nat. Fed. Bike Time laps Diff. First Diff. Prev. Bestlaptime in lap Speed
1 61 Prado, Jorge ESP RFME KTM 24:28.222 13 0:00.000 0:00.000 1:48.817 4 54.9
2 19 Olsen, Thomas Kjer DEN DMU Husqvarna 24:34.042 13 0:05.820 0:05.820 1:51.248 5 53.7
3 64 Covington, Thomas USA MUL Husqvarna 24:35.443 13 0:07.221 0:01.401 1:50.653 4 54
4 919 Watson, Ben GBR ACU Yamaha 24:37.257 13 0:09.035 0:01.814 1:51.243 5 53.7
5 426 Mewse, Conrad GBR ACU KTM 24:45.042 13 0:16.820 0:07.785 1:51.244 3 53.7
6 29 Jacobi, Henry GER DMSB Husqvarna 24:54.854 13 0:26.632 0:09.812 1:51.486 3 53.6
7 811 Sterry, Adam GBR ACU Kawasaki 24:58.472 13 0:30.250 0:03.618 1:51.777 3 53.4
8 70 Fernandez, Ruben ESP RFME Kawasaki 25:07.892 13 0:39.670 0:09.420 1:52.892 5 52.9
9 747 Cervellin, Michele ITA FMI Honda 25:09.516 13 0:41.294 0:01.624 1:53.043 7 52.8
10 46 Pootjes, Davy NED KNMV KTM 25:13.435 13 0:45.213 0:03.919 1:51.637 5 53.5
11 18 Brylyakov, Vsevolod RUS MFR Yamaha 25:17.059 13 0:48.837 0:03.624 1:53.417 11 52.6
12 321 Bernardini, Samuele ITA FMI TM 25:21.954 13 0:53.732 0:04.895 1:53.848 10 52.4
13 193 Geerts, Jago BEL FMB Yamaha 25:24.008 13 0:55.786 0:02.054 1:53.928 11 52.4
14 14 Beaton, Jed AUS MA Kawasaki 25:25.296 13 0:57.074 0:01.288 1:52.393 4 53.1
15 1 Jonass, Pauls LAT LAMSF KTM 25:27.049 13 0:58.827 0:01.753 1:52.934 7 52.9
16 98 Vaessen, Bas NED KNMV Honda 25:30.904 13 1:02.682 0:03.855 1:54.485 4 52.1
17 338 Herbreteau, David FRA FFM KTM 25:36.973 13 1:08.751 0:06.069 1:54.442 6 52.2
18 172 Van doninck, Brent BEL FMB Husqvarna 25:37.738 13 1:09.516 0:00.765 1:53.316 7 52.7
19 10 Vlaanderen, Calvin RSA KNMV Honda 25:38.537 13 1:10.315 0:00.799 1:53.846 6 52.4
20 959 Renaux, Maxime FRA FFM Yamaha 25:39.170 13 1:10.948 0:00.633 1:54.724 3 52